首页
METAR-TAF:

METAR-TAF

机场 :

Skiathos, 希腊

纬度: 39-11N, 经度: 023-30E, 海拔: 15米

当前天气观测

该预报发布于10小时和14分钟前的09:50 UTC
风速6节,风向
温度 27°C
湿度 42%
气压 1012 hPa
能见度10公里或以上
少量云层高于2000英尺

METAR: LGSK 050950Z 19006KT 9999 FEW020 27/13 Q1012

时间: 23:04 (20:04 UTC)

预报

该预报发布于3小时和4分钟前的17:00 UTC
预报有效从05日的 18点(UTC)到 06日的 03点(UTC)
风速15节,风向
能见度10公里或以上
少量云层高于2000英尺
短暂存在
从 05日的 18点(UTC)到 06日的 03点(UTC)
风速15节,风向,有时为25节阵风
几率 30% :
短暂存在
从 05日的 21点(UTC)到 06日的 03点(UTC)
能見度: 5000
少量云层高于1000英尺
少量云层高于1800英尺, 塔状积云.
多云层高于6000英尺

TAF: LGSK 051700Z 0518/0603 17015KT 9999 FEW020 TEMPO 0518/0603 17015G25KT PROB30 TEMPO 0521/0603 5000 RA FEW010 FEW018TCU BKN060

超过4000个机场的气象观测和天气预报(METAR&TAF报告)。

可查询的气象台以黄色和红色小点在地图上表示。

将鼠标移到小点上方,可查看气象台名称。

然后点击查看天气观测和预报。

如需切换地图:点击带黑十字的绿色按钮放大地图;点击带横线的绿色按钮缩小地图;或者点击绿色箭头查看邻近地区的地图。


METAR-TAF: